KBOW/BOW METAR and TAF weather

Enter ICAO airport designator
Station Type Date Time Source
KBOW METAR 2021/04/17 02:35 UTC NOAA

KBOW 170235Z AUTO 22005KT 10SM CLR 23/19 A2988 RMK AO2


Station Type Date Time Source
KBOW Decoded METAR 2021/04/17 02:35 UTC NOAA

Bartow Municipal, FL, United States (KBOW) 27-57N 081-47W
Apr 16, 2021 - 10:35 PM EDT / 2021.04.17 0235 UTC
Wind: from the SW (220 degrees) at 6 MPH (5 KT):0
Visibility: 10 mile(s):0
Sky conditions: clear
Temperature: 73 F (23 C)
Dew Point: 66 F (19 C)
Relative Humidity: 78%
Pressure (altimeter): 29.88 in. Hg (1011 hPa)
ob: KBOW 170235Z AUTO 22005KT 10SM CLR 23/19 A2988 RMK AO2
cycle: 2

Station Type Date Time Source
KBOW TAF UTC NOAA

Error!

Example: see airport list